Time;durP1;ratioP1;P1;durP2;ratioP2;P2;SDS_P1;SDS_P2;PMS_P1;PMS_P2;Temp;Humidity;BMP_temperature;BMP_pressure;BME280_temperature;BME280_humidity;BME280_pressure;Samples;Min_cycle;Max_cycle;Signal;HPM_P1;HPM_P2
2022/03/23 00:01:36;;;;;;;46.40;19.00;;;;;;;4.28;100.00;102927.72;5210129;28;20025;-76
2022/03/23 00:04:07;;;;;;;47.92;18.67;;;;;;;4.23;100.00;102934.22;5217562;28;20047;-76
2022/03/23 00:06:38;;;;;;;50.28;20.15;;;;;;;4.20;100.00;102927.22;5227977;28;20388;-76
2022/03/23 00:09:08;;;;;;;41.50;19.65;;;;;;;4.20;100.00;102926.38;5227995;28;20029;-76
2022/03/23 00:11:39;;;;;;;51.15;20.08;;;;;;;4.18;100.00;102929.13;5228104;28;20503;-76
2022/03/23 00:14:10;;;;;;;41.67;19.20;;;;;;;4.15;100.00;102937.22;5227635;28;20025;-76
2022/03/23 00:16:40;;;;;;;47.90;20.27;;;;;;;4.08;100.00;102936.66;5228143;28;20021;-76
2022/03/23 00:19:11;;;;;;;47.08;21.05;;;;;;;4.05;100.00;102938.59;5227933;28;20021;-76
2022/03/23 00:21:41;;;;;;;54.95;23.50;;;;;;;4.11;100.00;102931.19;5227633;28;20395;-76
2022/03/23 00:24:12;;;;;;;60.55;22.70;;;;;;;4.09;100.00;102934.88;5227816;28;20032;-76
2022/03/23 00:26:42;;;;;;;54.88;22.80;;;;;;;4.06;100.00;102937.66;5227900;28;20037;-76
2022/03/23 00:29:13;;;;;;;59.00;23.30;;;;;;;4.01;100.00;102931.69;5228056;28;20021;-76
2022/03/23 00:31:43;;;;;;;57.22;23.90;;;;;;;3.98;100.00;102934.53;5226466;28;20100;-76
2022/03/23 00:34:13;;;;;;;50.42;23.90;;;;;;;3.98;100.00;102929.22;5227151;28;20389;-76
2022/03/23 00:36:44;;;;;;;56.67;23.70;;;;;;;4.05;100.00;102927.97;5227632;28;20031;-76
2022/03/23 00:39:14;;;;;;;50.03;22.92;;;;;;;3.98;100.00;102926.56;5226935;28;20529;-76
2022/03/23 00:41:49;;;;;;;55.85;23.40;;;;;;;3.94;100.00;102935.59;5227796;28;20029;-76
2022/03/23 00:44:19;;;;;;;52.75;23.40;;;;;;;3.85;100.00;102936.88;5226974;28;20040;-76
2022/03/23 00:46:50;;;;;;;56.17;25.10;;;;;;;3.77;100.00;102931.94;5227645;28;20481;-76
2022/03/23 00:49:20;;;;;;;60.00;26.92;;;;;;;3.72;100.00;102936.59;5228521;28;20021;-75
2022/03/23 00:51:53;;;;;;;53.28;22.73;;;;;;;3.68;100.00;102923.53;5230609;28;20074;-76
2022/03/23 00:54:24;;;;;;;59.83;23.88;;;;;;;3.66;100.00;102934.22;5229783;28;20094;-75
2022/03/23 00:56:54;;;;;;;49.97;22.75;;;;;;;3.58;100.00;102934.56;5231461;28;20033;-76
2022/03/23 00:59:24;;;;;;;60.50;24.45;;;;;;;3.53;100.00;102944.53;5225926;28;20123;-76
2022/03/23 01:01:55;;;;;;;64.03;24.42;;;;;;;3.49;100.00;102942.09;5205941;28;20061;-76
2022/03/23 01:04:26;;;;;;;55.90;23.45;;;;;;;3.45;100.00;102943.16;5218892;28;20485;-76
2022/03/23 01:06:58;;;;;;;50.97;22.98;;;;;;;3.43;100.00;102934.41;5227131;28;20388;-76
2022/03/23 01:09:28;;;;;;;67.40;25.25;;;;;;;3.43;100.00;102937.06;5226704;28;20032;-76
2022/03/23 01:11:59;;;;;;;60.22;24.95;;;;;;;3.43;100.00;102937.06;5227037;28;20028;-76
2022/03/23 01:14:29;;;;;;;62.72;26.27;;;;;;;3.41;100.00;102930.94;5226534;28;20025;-76
2022/03/23 01:17:00;;;;;;;57.10;25.08;;;;;;;3.36;100.00;102928.50;5227010;28;20498;-76
2022/03/23 01:19:30;;;;;;;65.20;29.73;;;;;;;3.33;100.00;102928.66;5226925;28;20362;-76
2022/03/23 01:22:01;;;;;;;60.05;27.13;;;;;;;3.29;100.00;102921.75;5226572;28;20381;-76
2022/03/23 01:24:32;;;;;;;54.95;25.05;;;;;;;3.27;100.00;102926.28;5226399;28;20031;-76
2022/03/23 01:27:03;;;;;;;55.60;24.60;;;;;;;3.24;100.00;102924.63;5226708;28;20025;-76
2022/03/23 01:29:33;;;;;;;63.25;24.00;;;;;;;3.21;100.00;102924.72;5226635;28;20035;-76
2022/03/23 01:32:05;;;;;;;59.15;26.35;;;;;;;3.18;100.00;102926.69;5226710;28;20025;-76
2022/03/23 01:34:35;;;;;;;60.20;27.23;;;;;;;3.10;100.00;102922.56;5226455;28;20037;-76
2022/03/23 01:37:06;;;;;;;63.25;26.50;;;;;;;3.02;100.00;102924.69;5226580;28;20021;-76
2022/03/23 01:39:37;;;;;;;64.28;28.05;;;;;;;2.87;100.00;102922.72;5226498;28;20036;-76
2022/03/23 01:42:08;;;;;;;65.22;28.02;;;;;;;2.82;100.00;102930.00;5226901;28;20035;-76
2022/03/23 01:44:38;;;;;;;61.63;26.40;;;;;;;2.80;100.00;102927.41;5225633;28;20029;-76
2022/03/23 01:47:10;;;;;;;78.97;28.90;;;;;;;2.78;100.00;102923.97;5226691;28;20052;-76
2022/03/23 01:49:59;;;;;;;66.32;27.55;;;;;;;2.62;100.00;102925.53;5225490;28;20504;-76
2022/03/23 01:52:31;;;;;;;67.55;28.65;;;;;;;2.53;100.00;102923.28;5226139;28;20092;-76
2022/03/23 01:55:07;;;;;;;61.00;25.88;;;;;;;2.46;100.00;102921.78;5225718;28;20027;-76
2022/03/23 01:57:39;;;;;;;65.32;26.60;;;;;;;2.40;100.00;102925.53;5226586;28;20027;-75
2022/03/23 02:00:11;;;;;;;61.20;26.15;;;;;;;2.31;100.00;102916.22;5219709;28;20026;-76
2022/03/23 02:02:43;;;;;;;59.97;23.30;;;;;;;2.26;100.00;102917.28;5211474;28;20028;-76
2022/03/23 02:05:14;;;;;;;61.72;26.08;;;;;;;2.22;100.00;102913.06;5219513;28;20013;-76
2022/03/23 02:07:45;;;;;;;62.17;24.52;;;;;;;2.19;100.00;102913.19;5225007;28;20025;-76
2022/03/23 02:10:17;;;;;;;62.88;27.05;;;;;;;2.21;100.00;102916.63;5225980;28;20029;-76
2022/03/23 02:12:47;;;;;;;66.53;27.00;;;;;;;2.24;100.00;102914.72;5226307;28;20460;-76
2022/03/23 02:15:18;;;;;;;63.00;25.58;;;;;;;2.26;100.00;102918.19;5225449;28;20472;-76
2022/03/23 02:18:00;;;;;;;60.67;24.52;;;;;;;2.28;100.00;102921.63;5225967;28;20442;-76
2022/03/23 02:20:40;;;;;;;53.75;22.65;;;;;;;2.29;100.00;102911.88;5224783;28;20028;-76
2022/03/23 02:23:29;;;;;;;47.45;21.65;;;;;;;2.27;100.00;102914.59;5225958;28;20370;-76
2022/03/23 02:26:09;;;;;;;51.75;21.35;;;;;;;2.29;100.00;102911.88;5225561;28;20109;-76
2022/03/23 02:28:39;;;;;;;49.10;22.02;;;;;;;2.29;100.00;102912.75;5225703;28;20107;-76
2022/03/23 02:31:10;;;;;;;49.28;22.10;;;;;;;2.28;100.00;102908.38;5212617;28;20017;-76
2022/03/23 02:33:40;;;;;;;53.58;22.75;;;;;;;2.32;100.00;102909.13;5225822;28;20031;-76
2022/03/23 02:36:11;;;;;;;56.55;24.33;;;;;;;2.34;100.00;102913.41;5225228;28;20503;-76
2022/03/23 02:38:41;;;;;;;54.50;22.00;;;;;;;2.33;100.00;102913.50;5225714;28;20331;-76
2022/03/23 02:41:13;;;;;;;58.85;24.60;;;;;;;2.33;100.00;102913.50;5225192;28;20504;-76
2022/03/23 02:43:44;;;;;;;63.88;24.60;;;;;;;2.32;100.00;102903.81;5225464;28;20032;-76
2022/03/23 02:46:17;;;;;;;55.08;24.33;;;;;;;2.28;100.00;102911.03;5225269;28;20036;-76
2022/03/23 02:48:49;;;;;;;61.58;25.00;;;;;;;2.22;100.00;102911.28;5225881;28;20028;-76
2022/03/23 02:51:27;;;;;;;70.00;27.98;;;;;;;2.17;100.00;102912.41;5225064;28;20028;-76
2022/03/23 03:03:22;;;;;;;59.67;25.95;;;;;;;1.98;100.00;102909.59;5201893;28;20116;-76
2022/03/23 03:05:52;;;;;;;65.88;27.48;;;;;;;1.94;100.00;102916.78;5223323;28;20095;-76
2022/03/23 03:11:32;;;;;;;65.00;26.67;;;;;;;1.86;100.00;102915.38;5224948;28;20112;-76
2022/03/23 03:14:03;;;;;;;75.57;27.63;;;;;;;1.80;100.00;102909.38;5225243;28;20365;-76
2022/03/23 03:16:34;;;;;;;65.90;26.73;;;;;;;1.77;100.00;102912.16;5224631;28;20028;-76
2022/03/23 03:19:06;;;;;;;70.90;28.52;;;;;;;1.77;100.00;102912.16;5223997;28;20063;-76
2022/03/23 03:21:37;;;;;;;70.18;27.67;;;;;;;1.77;100.00;102913.97;5230772;28;20245;-76
2022/03/23 03:24:07;;;;;;;68.45;27.92;;;;;;;1.80;100.00;102916.47;5224953;28;20358;-76
2022/03/23 03:26:38;;;;;;;70.88;29.13;;;;;;;1.80;100.00;102917.31;5224836;28;20032;-76
2022/03/23 03:29:08;;;;;;;66.50;28.27;;;;;;;1.81;100.00;102916.44;5224618;28;20032;-76
2022/03/23 03:31:39;;;;;;;62.95;27.23;;;;;;;1.80;100.00;102917.31;5224199;28;20025;-76
2022/03/23 03:34:09;;;;;;;65.85;27.13;;;;;;;1.78;100.00;102916.53;5224051;28;20020;-76
2022/03/23 03:36:41;;;;;;;63.58;27.90;;;;;;;1.75;100.00;102919.28;5223772;28;20060;-76
2022/03/23 03:39:11;;;;;;;66.38;27.52;;;;;;;1.72;100.00;102922.06;5224797;28;20322;-76
2022/03/23 03:41:41;;;;;;;59.50;25.73;;;;;;;1.72;100.00;102921.22;5224405;28;20063;-76
2022/03/23 03:44:12;;;;;;;61.15;24.58;;;;;;;1.73;100.00;102923.78;5223970;28;20029;-76
2022/03/23 03:46:45;;;;;;;59.58;24.98;;;;;;;1.75;100.00;102924.56;5224874;28;20031;-76
2022/03/23 03:49:16;;;;;;;72.65;27.90;;;;;;;1.78;100.00;102924.47;5224605;28;20032;-76
2022/03/23 03:51:46;;;;;;;59.13;25.25;;;;;;;1.75;100.00;102927.22;5224352;28;20029;-76
2022/03/23 03:54:17;;;;;;;67.22;26.88;;;;;;;1.74;100.00;102938.75;5223808;28;20117;-76
2022/03/23 03:56:47;;;;;;;67.55;26.73;;;;;;;1.71;100.00;102938.88;5224957;28;20051;-76
2022/03/23 03:59:18;;;;;;;62.65;25.83;;;;;;;1.65;100.00;102944.38;5224316;28;20090;-75
2022/03/23 04:01:49;;;;;;;63.05;26.65;;;;;;;1.58;100.00;102942.88;5204703;28;20448;-76
2022/03/23 04:04:20;;;;;;;62.00;25.52;;;;;;;1.51;100.00;102949.34;5214814;28;20468;-75
2022/03/23 04:06:50;;;;;;;72.25;27.83;;;;;;;1.45;100.00;102947.75;5224651;28;20037;-76
2022/03/23 04:09:20;;;;;;;67.70;28.10;;;;;;;1.38;100.00;102943.63;5224378;28;20021;-76
2022/03/23 04:11:51;;;;;;;72.50;26.70;;;;;;;1.28;100.00;102958.97;5224369;28;20016;-75
2022/03/23 04:14:21;;;;;;;68.40;28.60;;;;;;;1.19;100.00;102954.00;5226399;28;20384;-76
2022/03/23 04:16:52;;;;;;;76.95;31.08;;;;;;;1.15;100.00;102956.78;5228761;28;20159;-75
2022/03/23 04:19:22;;;;;;;73.63;29.55;;;;;;;1.08;100.00;102958.78;5228225;28;20563;-75
2022/03/23 04:21:53;;;;;;;77.35;31.17;;;;;;;1.02;100.00;102959.88;5228216;28;20148;-75
2022/03/23 04:24:23;;;;;;;83.38;33.13;;;;;;;0.97;100.00;102955.66;5227507;28;20495;-76
2022/03/23 04:26:53;;;;;;;77.88;32.08;;;;;;;0.96;100.00;102959.25;5228292;28;20476;-76
2022/03/23 04:29:26;;;;;;;76.15;31.90;;;;;;;0.94;100.00;102959.25;5227743;28;20025;-76
2022/03/23 04:31:57;;;;;;;78.80;31.55;;;;;;;0.94;100.00;102966.34;5227624;28;20075;-76
2022/03/23 04:34:27;;;;;;;68.00;29.70;;;;;;;0.95;100.00;102950.41;5226110;28;20126;-76
2022/03/23 04:36:57;;;;;;;84.10;29.13;;;;;;;0.99;100.00;102961.75;5227989;28;20032;-76
2022/03/23 04:39:28;;;;;;;72.72;30.10;;;;;;;1.00;100.00;102959.09;5227790;28;20020;-76
2022/03/23 04:41:59;;;;;;;81.90;29.75;;;;;;;0.99;100.00;102965.25;5227588;28;20104;-76
2022/03/23 04:44:29;;;;;;;76.35;29.67;;;;;;;1.01;100.00;102965.22;5227065;28;20118;-76
2022/03/23 04:47:00;;;;;;;73.18;29.05;;;;;;;1.00;100.00;102960.84;5227980;28;20056;-77
2022/03/23 04:49:30;;;;;;;63.83;26.85;;;;;;;0.97;100.00;102958.31;5227901;28;20099;-75
2022/03/23 04:52:01;;;;;;;61.28;26.92;;;;;;;0.93;100.00;102961.97;5227614;28;20016;-76
2022/03/23 04:54:31;;;;;;;75.88;28.73;;;;;;;0.89;100.00;102958.56;5226639;28;20029;-76
2022/03/23 04:57:01;;;;;;;71.45;28.17;;;;;;;0.85;100.00;102969.28;5226538;28;20072;-76
2022/03/23 04:59:32;;;;;;;80.10;29.48;;;;;;;0.78;100.00;102964.22;5226234;28;20404;-76
2022/03/23 05:02:03;;;;;;;70.07;28.90;;;;;;;0.75;100.00;102968.72;5212653;28;20507;-76
2022/03/23 05:04:33;;;;;;;71.63;29.58;;;;;;;0.72;100.00;102961.78;5219341;28;20029;-76
2022/03/23 05:07:04;;;;;;;67.25;28.40;;;;;;;0.75;100.00;102963.44;5226848;28;20104;-76
2022/03/23 05:09:34;;;;;;;67.68;29.58;;;;;;;0.76;100.00;102962.56;5227421;28;20524;-76
2022/03/23 05:12:06;;;;;;;69.47;28.13;;;;;;;0.82;100.00;102969.41;5227252;28;20036;-76
2022/03/23 05:14:36;;;;;;;74.72;30.20;;;;;;;0.84;100.00;102971.06;5226568;28;20032;-76
2022/03/23 05:17:07;;;;;;;69.50;29.30;;;;;;;0.75;100.00;102966.09;5227139;28;20025;-76
2022/03/23 05:19:38;;;;;;;70.95;28.08;;;;;;;0.59;100.00;102968.38;5226846;28;20700;-75
2022/03/23 05:22:09;;;;;;;67.82;28.50;;;;;;;0.49;100.00;102966.94;5227011;28;20029;-76
2022/03/23 05:24:40;;;;;;;69.55;28.83;;;;;;;0.45;100.00;102976.75;5226191;28;20058;-76
2022/03/23 05:27:10;;;;;;;64.40;27.65;;;;;;;0.43;100.00;102977.72;5227078;28;20053;-76
2022/03/23 05:29:43;;;;;;;73.82;29.25;;;;;;;0.44;100.00;102975.00;5225541;28;20024;-76
2022/03/23 05:32:16;;;;;;;69.05;29.50;;;;;;;0.45;100.00;102971.47;5214227;28;20107;-76
2022/03/23 05:34:48;;;;;;;66.22;27.13;;;;;;;0.51;100.00;102983.63;5226048;28;20027;-75
2022/03/23 05:37:18;;;;;;;68.45;28.10;;;;;;;0.51;100.00;102979.22;5226907;28;20028;-76
2022/03/23 05:39:49;;;;;;;61.05;24.00;;;;;;;0.47;100.00;102984.63;5225687;28;20067;-76
2022/03/23 05:42:19;;;;;;;71.25;26.85;;;;;;;0.38;100.00;102980.50;5225288;28;20060;-76
2022/03/23 05:44:50;;;;;;;65.50;25.58;;;;;;;0.37;100.00;102983.19;5225877;28;20032;-76
2022/03/23 05:47:21;;;;;;;68.80;27.38;;;;;;;0.39;100.00;102981.34;5226647;28;20051;-76
2022/03/23 05:49:52;;;;;;;67.82;28.98;;;;;;;0.39;100.00;102984.00;5226480;28;20066;-75
2022/03/23 05:52:22;;;;;;;67.60;26.83;;;;;;;0.32;100.00;102988.63;5228548;28;20492;-81
2022/03/23 05:54:53;;;;;;;61.05;26.40;;;;;;;0.30;100.00;102987.78;5227485;28;20032;-77
2022/03/23 05:57:23;;;;;;;66.60;27.08;;;;;;;0.35;100.00;102991.19;5226774;28;20384;-77
2022/03/23 05:59:54;;;;;;;78.90;29.45;;;;;;;0.54;100.00;102999.34;5222288;28;20032;-77
2022/03/23 06:02:24;;;;;;;68.53;27.83;;;;;;;0.58;100.00;103000.13;5209594;28;20020;-78
2022/03/23 06:04:55;;;;;;;72.53;29.20;;;;;;;0.62;100.00;102999.13;5218059;28;20021;-75
2022/03/23 06:07:25;;;;;;;74.13;30.20;;;;;;;0.66;100.00;102998.97;5226426;28;20044;-74
2022/03/23 06:09:56;;;;;;;66.25;27.55;;;;;;;0.73;100.00;102997.00;5226152;28;20481;-74
2022/03/23 06:12:26;;;;;;;79.75;30.85;;;;;;;0.88;100.00;102996.47;5226001;28;20131;-74
2022/03/23 06:14:57;;;;;;;54.88;23.13;;;;;;;1.02;100.00;102999.53;5225273;28;20088;-74
2022/03/23 06:17:27;;;;;;;66.60;26.90;;;;;;;1.24;100.00;102996.13;5226278;28;20021;-76
2022/03/23 06:19:57;;;;;;;66.22;27.80;;;;;;;1.48;100.00;103005.00;5225624;28;20021;-77
2022/03/23 06:22:28;;;;;;;57.55;26.75;;;;;;;1.69;100.00;103011.28;5226100;28;20490;-75
2022/03/23 06:24:58;;;;;;;75.97;28.67;;;;;;;1.94;100.00;103003.28;5225093;28;20021;-76
2022/03/23 06:27:29;;;;;;;61.30;25.02;;;;;;;2.43;100.00;103006.69;5225915;28;20081;-76
2022/03/23 06:29:59;;;;;;;56.72;25.45;;;;;;;2.67;100.00;103008.38;5225266;28;20021;-77
2022/03/23 06:32:30;;;;;;;55.50;26.40;;;;;;;2.98;100.00;103013.25;5225613;28;20032;-77
2022/03/23 06:35:02;;;;;;;49.92;24.38;;;;;;;3.24;100.00;103011.28;5224981;28;20013;-77
2022/03/23 06:37:32;;;;;;;51.20;24.17;;;;;;;3.30;100.00;103018.97;5225406;28;20025;-78
2022/03/23 06:40:05;;;;;;;61.75;25.52;;;;;;;3.55;100.00;103018.78;5226085;28;20027;-78
2022/03/23 06:42:35;;;;;;;57.33;26.50;;;;;;;3.86;100.00;103015.59;5226377;28;20024;-78
2022/03/23 06:45:06;;;;;;;56.03;26.63;;;;;;;4.26;100.00;103008.44;5225579;28;20049;-78
2022/03/23 06:47:37;;;;;;;55.28;27.05;;;;;;;4.71;100.00;103018.66;5225998;28;20056;-77
2022/03/23 06:50:08;;;;;;;53.10;25.67;;;;;;;5.00;100.00;103013.69;5224205;28;20392;-77
2022/03/23 06:52:39;;;;;;;52.05;25.17;;;;;;;5.45;100.00;103016.66;5224090;28;20021;-77
2022/03/23 06:55:09;;;;;;;52.55;23.23;;;;;;;6.06;100.00;103019.66;5224305;28;20032;-77
2022/03/23 06:57:40;;;;;;;42.03;21.45;;;;;;;6.36;100.00;103009.97;5225391;28;20116;-77
2022/03/23 07:00:21;;;;;;;52.88;25.23;;;;;;;6.52;100.00;103022.44;5217736;28;20468;-78
2022/03/23 07:03:11;;;;;;;51.25;24.88;;;;;;;6.75;100.00;103022.00;5199402;28;20409;-78
2022/03/23 07:05:42;;;;;;;48.13;24.67;;;;;;;7.11;100.00;103029.66;5221119;28;20203;-77
2022/03/23 07:11:02;;;;;;;48.22;26.48;;;;;;;7.34;100.00;103051.47;5225167;28;20032;-78
2022/03/23 07:13:33;;;;;;;48.25;24.70;;;;;;;7.51;100.00;103041.47;5225327;28;20048;-78
2022/03/23 07:16:04;;;;;;;51.15;26.50;;;;;;;7.80;100.00;103046.88;5224222;28;20063;-78
2022/03/23 07:18:34;;;;;;;57.25;25.60;;;;;;;7.74;100.00;103052.59;5225097;28;20040;-78
2022/03/23 07:21:05;;;;;;;47.05;25.88;;;;;;;7.87;100.00;103040.19;5201330;28;20091;-78
2022/03/23 07:23:35;;;;;;;51.85;26.20;;;;;;;8.02;100.00;103041.91;5209337;28;20025;-78
2022/03/23 07:26:06;;;;;;;49.97;26.85;;;;;;;8.31;100.00;103041.88;5222664;28;20100;-78
2022/03/23 07:28:37;;;;;;;47.00;25.98;;;;;;;8.87;100.00;103048.06;5223204;28;20029;-78
2022/03/23 07:31:08;;;;;;;51.17;26.02;;;;;;;9.54;100.00;103048.88;5222751;28;20025;-79
2022/03/23 07:33:39;;;;;;;51.08;26.02;;;;;;;9.90;100.00;103057.13;5223379;28;20401;-79
2022/03/23 07:36:12;;;;;;;50.88;25.92;;;;;;;10.29;100.00;103048.06;5221210;28;20044;-78
2022/03/23 07:38:42;;;;;;;48.83;26.30;;;;;;;10.20;100.00;103051.41;5223195;28;20025;-78
2022/03/23 07:41:13;;;;;;;62.92;26.92;;;;;;;10.53;100.00;103056.16;5222442;28;20548;-77
2022/03/23 07:43:44;;;;;;;52.17;25.83;;;;;;;10.77;100.00;103051.69;5223049;28;20040;-77
2022/03/23 07:46:15;;;;;;;45.88;25.77;;;;;;;11.17;100.00;103056.75;5222594;28;20385;-77
2022/03/23 07:48:46;;;;;;;52.28;26.02;;;;;;;11.23;100.00;103052.72;5224656;28;20029;-77
2022/03/23 07:51:16;;;;;;;55.00;26.95;;;;;;;11.72;100.00;103063.25;5226590;28;20032;-77
2022/03/23 07:53:47;;;;;;;52.95;27.33;;;;;;;11.87;100.00;103061.22;5226740;28;20078;-76
2022/03/23 07:56:17;;;;;;;46.25;26.00;;;;;;;12.28;100.00;103062.44;5233424;28;20032;-81
2022/03/23 07:58:48;;;;;;;46.72;25.73;;;;;;;12.63;100.00;103067.66;5235292;28;20024;-79
2022/03/23 08:01:19;;;;;;;46.63;25.30;;;;;;;12.87;100.00;103056.69;5209888;28;20029;-79
2022/03/23 08:03:49;;;;;;;58.30;28.63;;;;;;;12.85;100.00;103064.91;5213999;28;20449;-79
2022/03/23 08:06:20;;;;;;;48.05;26.83;;;;;;;12.85;100.00;103064.03;5226792;28;20561;-79
2022/03/23 08:08:52;;;;;;;45.42;25.80;;;;;;;13.40;100.00;103060.31;5227140;28;20060;-79
2022/03/23 08:11:22;;;;;;;44.50;25.65;;;;;;;13.68;100.00;103063.31;5226612;28;20107;-79
2022/03/23 08:13:53;;;;;;;45.67;25.98;;;;;;;13.54;100.00;103067.19;5226348;28;20618;-79
2022/03/23 08:16:24;;;;;;;53.28;26.60;;;;;;;13.70;100.00;103072.09;5226032;28;20032;-79
2022/03/23 08:18:54;;;;;;;44.75;25.65;;;;;;;14.27;100.00;103073.41;5218436;28;20047;-80
2022/03/23 08:21:26;;;;;;;48.08;26.50;;;;;;;14.59;100.00;103070.53;5218414;28;20017;-80
2022/03/23 08:23:57;;;;;;;50.17;26.77;;;;;;;14.67;98.29;103076.09;5226079;28;20035;-79
2022/03/23 08:26:27;;;;;;;44.40;26.38;;;;;;;15.16;96.17;103071.63;5225154;28;20395;-79
2022/03/23 08:28:58;;;;;;;47.92;27.85;;;;;;;14.96;94.31;103072.56;5224731;28;20021;-79
2022/03/23 08:31:29;;;;;;;46.65;27.10;;;;;;;14.97;94.48;103069.75;5212672;28;20392;-80
2022/03/23 08:34:00;;;;;;;49.58;26.33;;;;;;;15.25;94.67;103070.72;5225910;28;20075;-78
2022/03/23 08:36:31;;;;;;;49.88;27.65;;;;;;;15.61;91.97;103079.09;5224982;28;20032;-81
2022/03/23 08:39:05;;;;;;;51.60;27.92;;;;;;;16.06;84.09;103075.72;5226540;28;20035;-81
2022/03/23 08:41:36;;;;;;;46.30;27.85;;;;;;;15.86;81.31;103077.63;5226010;28;20382;-82
2022/03/23 08:44:06;;;;;;;46.63;27.08;;;;;;;17.33;61.45;103066.66;5226673;28;20037;-81
2022/03/23 08:46:37;;;;;;;54.38;29.38;;;;;;;16.81;64.49;103066.50;5227924;28;20479;-81
2022/03/23 08:49:07;;;;;;;54.33;28.45;;;;;;;15.68;71.79;103074.00;5225770;28;20085;-79
2022/03/23 08:51:38;;;;;;;46.97;27.23;;;;;;;15.86;69.56;103071.38;5204530;28;20029;-80
2022/03/23 08:54:08;;;;;;;55.60;29.08;;;;;;;16.37;69.09;103072.75;5218219;28;20372;-80
2022/03/23 08:56:39;;;;;;;50.78;26.77;;;;;;;16.07;66.91;103072.03;5214671;28;20020;-80
2022/03/23 08:59:10;;;;;;;48.63;26.00;;;;;;;16.19;69.96;103070.81;5225029;28;20155;-79
2022/03/23 09:01:40;;;;;;;46.08;24.77;;;;;;;17.82;56.41;103071.59;5207072;28;20025;-77
2022/03/23 09:04:11;;;;;;;42.22;24.73;;;;;;;18.15;55.41;103071.78;5210506;28;20024;-77
2022/03/23 09:06:42;;;;;;;50.35;26.77;;;;;;;17.75;54.73;103071.41;5205581;28;20487;-77
2022/03/23 09:09:12;;;;;;;47.28;24.67;;;;;;;18.47;51.14;103065.63;5211740;28;20025;-78
2022/03/23 09:11:43;;;;;;;45.80;25.20;;;;;;;18.08;51.74;103068.88;5225504;28;20025;-75
2022/03/23 09:14:14;;;;;;;44.60;25.25;;;;;;;17.70;55.53;103072.84;5224486;28;20028;-77
2022/03/23 09:16:44;;;;;;;52.53;27.55;;;;;;;17.76;54.60;103074.97;5225415;28;20420;-77
2022/03/23 09:19:19;;;;;;;47.63;26.10;;;;;;;17.72;53.59;103077.13;5224917;28;20420;-75
2022/03/23 09:21:50;;;;;;;;;;;;;;;18.15;51.25;103072.63;5225678;28;20374;-76
2022/03/23 09:24:21;;;;;;;44.53;24.23;;;;;;;19.31;46.31;103079.06;5224604;28;19971;-76
2022/03/23 09:26:54;;;;;;;51.63;26.08;;;;;;;19.30;44.53;103073.81;5225177;28;20025;-76
2022/03/23 09:29:25;;;;;;;47.83;26.80;;;;;;;19.44;45.37;103072.28;5224764;28;20032;-76
2022/03/23 09:31:55;;;;;;;51.13;25.58;;;;;;;19.32;45.43;103067.16;5224718;28;20033;-76
2022/03/23 09:34:26;;;;;;;45.58;25.13;;;;;;;19.48;43.35;103071.78;5224545;28;20454;-76
2022/03/23 09:39:45;;;;;;;41.47;22.60;;;;;;;20.06;39.33;103072.50;5224497;28;20028;-76
2022/03/23 09:42:18;;;;;;;48.08;25.58;;;;;;;19.43;40.95;103066.00;5225240;28;20028;-76
2022/03/23 09:44:49;;;;;;;50.50;24.88;;;;;;;19.18;40.55;103067.84;5223857;28;20029;-76
2022/03/23 09:47:19;;;;;;;54.30;24.75;;;;;;;19.35;41.03;103068.69;5224785;28;20074;-76
2022/03/23 09:49:50;;;;;;;44.17;24.83;;;;;;;19.50;41.11;103063.41;5224663;28;20024;-76
2022/03/23 09:52:21;;;;;;;50.40;26.20;;;;;;;19.71;41.93;103063.75;5224227;28;20075;-76
2022/03/23 09:54:51;;;;;;;65.68;36.17;;;;;;;19.19;44.42;103071.44;5223958;28;20438;-76
2022/03/23 09:57:22;;;;;;;52.58;25.00;;;;;;;19.08;41.26;103067.19;5225047;28;20017;-76
2022/03/23 09:59:53;;;;;;;43.00;23.45;;;;;;;19.82;38.38;103067.97;5219388;28;20017;-76
2022/03/23 10:02:39;;;;;;;46.10;25.30;;;;;;;19.62;38.33;103072.94;5207369;28;20551;-76
2022/03/23 10:05:22;;;;;;;47.25;23.58;;;;;;;19.64;38.51;103071.78;5209221;28;20503;-76
2022/03/23 10:08:13;;;;;;;40.67;22.50;;;;;;;20.27;35.57;103075.50;5224751;28;20036;-76
2022/03/23 10:11:34;;;;;;;47.45;24.55;;;;;;;20.44;35.55;103077.13;5223664;28;20570;-76
2022/03/23 10:14:43;;;;;;;47.63;23.90;;;;;;;19.28;39.46;103065.81;5224053;28;20067;-76
2022/03/23 10:17:42;;;;;;;42.60;23.60;;;;;;;19.54;37.27;103072.94;5224246;28;20424;-76
2022/03/23 10:20:14;;;;;;;43.80;24.73;;;;;;;19.55;36.80;103077.38;5223992;28;20029;-76
2022/03/23 10:22:57;;;;;;;48.50;25.48;;;;;;;19.45;38.95;103072.09;5224661;28;20078;-78
2022/03/23 10:25:28;;;;;;;49.83;26.48;;;;;;;19.16;40.85;103072.59;5216320;28;20108;-76
2022/03/23 10:27:59;;;;;;;46.67;23.60;;;;;;;19.33;41.77;103074.31;5206861;28;20025;-76
2022/03/23 10:30:48;;;;;;;48.63;23.27;;;;;;;19.41;41.62;103073.44;5223634;28;20075;-76
2022/03/23 10:33:22;;;;;;;44.72;25.58;;;;;;;19.70;36.71;103072.94;5223411;28;20477;-76
2022/03/23 10:35:54;;;;;;;46.83;25.33;;;;;;;19.58;40.51;103066.16;5221965;28;20075;-76
2022/03/23 10:38:25;;;;;;;51.65;27.08;;;;;;;19.31;39.64;103062.75;5223693;28;20025;-76
2022/03/23 10:40:56;;;;;;;44.67;22.90;;;;;;;19.54;37.83;103064.78;5223267;28;20392;-76
2022/03/23 10:43:45;;;;;;;47.83;25.77;;;;;;;19.22;38.81;103060.19;5218800;28;20116;-76
2022/03/23 10:46:17;;;;;;;47.88;24.17;;;;;;;19.16;39.25;103061.72;5210677;28;20473;-76
2022/03/23 10:48:53;;;;;;;45.80;24.70;;;;;;;19.21;41.07;103059.34;5223331;28;20430;-76
2022/03/23 10:51:41;;;;;;;49.42;26.33;;;;;;;19.11;40.27;103061.38;5223020;28;20024;-75
2022/03/23 10:54:28;;;;;;;49.20;26.00;;;;;;;19.22;39.45;103055.59;5222524;28;20504;-76
2022/03/23 10:56:59;;;;;;;48.45;25.25;;;;;;;19.35;40.68;103060.53;5222028;28;20041;-76
2022/03/23 10:59:31;;;;;;;47.25;23.55;;;;;;;19.97;36.60;103059.94;5222388;28;20032;-76
2022/03/23 11:02:05;;;;;;;46.67;23.05;;;;;;;19.89;35.57;103063.56;5203280;28;20107;-76
2022/03/23 11:04:57;;;;;;;44.03;23.80;;;;;;;19.82;36.11;103065.25;5214944;28;20048;-76
2022/03/23 11:07:31;;;;;;;41.70;22.58;;;;;;;19.77;37.10;103060.31;5222761;28;20317;-76
2022/03/23 11:18:27;;;;;;;47.25;23.65;;;;;;;19.77;35.71;103060.31;5223301;28;20118;-76
2022/03/23 11:20:57;;;;;;;41.03;23.77;;;;;;;20.28;35.40;103057.25;5222527;28;20477;-76
2022/03/23 11:23:30;;;;;;;43.13;22.42;;;;;;;20.25;35.88;103058.47;5222640;28;20063;-76
2022/03/23 11:26:05;;;;;;;43.40;24.15;;;;;;;20.03;37.25;103056.50;5220548;28;20573;-76
2022/03/23 11:28:53;;;;;;;46.80;24.40;;;;;;;20.32;35.08;103054.00;5221230;28;20113;-76
2022/03/23 11:31:46;;;;;;;52.53;25.83;;;;;;;20.14;35.97;103047.97;5206122;28;20400;-76
2022/03/23 11:34:19;;;;;;;42.47;22.77;;;;;;;20.23;35.86;103052.38;5221950;28;20080;-76
2022/03/23 11:36:52;;;;;;;42.30;22.20;;;;;;;20.40;32.71;103048.53;5222915;28;20481;-76
2022/03/23 11:39:23;;;;;;;42.67;23.52;;;;;;;20.32;32.24;103048.56;5222863;28;20043;-76
2022/03/23 11:41:54;;;;;;;43.47;22.27;;;;;;;20.26;33.81;103042.97;5222574;28;20422;-76
2022/03/23 11:44:25;;;;;;;44.95;22.52;;;;;;;20.22;31.52;103033.44;5221644;28;20028;-76
2022/03/23 11:47:02;;;;;;;44.65;23.17;;;;;;;20.11;33.70;103040.13;5222463;28;20454;-76
2022/03/23 11:49:32;;;;;;;43.65;21.75;;;;;;;20.24;36.46;103029.53;5222457;28;20075;-76
2022/03/23 11:52:22;;;;;;;37.63;21.40;;;;;;;20.36;32.05;103027.25;5222526;28;20056;-76
2022/03/23 11:58:16;;;;;;;41.40;21.48;;;;;;;20.46;31.61;103027.03;5222800;28;20133;-76
2022/03/23 12:01:06;;;;;;;39.92;20.27;;;;;;;20.43;32.65;103020.91;5211308;28;20167;-76
2022/03/23 12:04:14;;;;;;;42.28;21.88;;;;;;;20.48;35.34;103020.38;5207262;28;20041;-76